sensor_id;sensor_type;location;lat;lon;timestamp;P1;durP1;ratioP1;P2;durP2;ratioP2
60030;SDS011;45901;47.600;9.890;2022-10-18T00:00:49;10.47;;;4.33;;
60030;SDS011;45901;47.600;9.890;2022-10-18T00:03:16;6.77;;;3.50;;
60030;SDS011;45901;47.600;9.890;2022-10-18T00:05:45;7.53;;;3.63;;
60030;SDS011;45901;47.600;9.890;2022-10-18T00:08:13;6.70;;;3.70;;
60030;SDS011;45901;47.600;9.890;2022-10-18T00:10:41;10.77;;;3.50;;
60030;SDS011;45901;47.600;9.890;2022-10-18T00:13:09;9.67;;;4.27;;
60030;SDS011;45901;47.600;9.890;2022-10-18T00:15:36;11.50;;;4.00;;
60030;SDS011;45901;47.600;9.890;2022-10-18T00:18:04;9.17;;;3.90;;
60030;SDS011;45901;47.600;9.890;2022-10-18T00:20:31;5.47;;;3.20;;
60030;SDS011;45901;47.600;9.890;2022-10-18T00:23:00;7.07;;;3.30;;
60030;SDS011;45901;47.600;9.890;2022-10-18T00:25:27;7.53;;;3.83;;
60030;SDS011;45901;47.600;9.890;2022-10-18T00:27:54;6.43;;;3.10;;
60030;SDS011;45901;47.600;9.890;2022-10-18T00:30:21;9.47;;;3.63;;
60030;SDS011;45901;47.600;9.890;2022-10-18T00:32:50;7.80;;;3.63;;
60030;SDS011;45901;47.600;9.890;2022-10-18T00:35:17;6.17;;;3.53;;
60030;SDS011;45901;47.600;9.890;2022-10-18T00:37:44;4.47;;;2.93;;
60030;SDS011;45901;47.600;9.890;2022-10-18T00:40:13;9.70;;;3.60;;
60030;SDS011;45901;47.600;9.890;2022-10-18T00:42:40;7.20;;;3.50;;
60030;SDS011;45901;47.600;9.890;2022-10-18T00:45:14;7.17;;;3.10;;
60030;SDS011;45901;47.600;9.890;2022-10-18T00:47:48;10.57;;;3.40;;
60030;SDS011;45901;47.600;9.890;2022-10-18T00:50:20;11.73;;;3.00;;
60030;SDS011;45901;47.600;9.890;2022-10-18T00:52:50;8.37;;;3.60;;
60030;SDS011;45901;47.600;9.890;2022-10-18T00:55:23;7.00;;;3.53;;
60030;SDS011;45901;47.600;9.890;2022-10-18T00:57:51;8.47;;;3.43;;
60030;SDS011;45901;47.600;9.890;2022-10-18T01:00:19;5.70;;;3.17;;
60030;SDS011;45901;47.600;9.890;2022-10-18T01:02:47;9.47;;;3.40;;
60030;SDS011;45901;47.600;9.890;2022-10-18T01:05:16;6.53;;;3.13;;
60030;SDS011;45901;47.600;9.890;2022-10-18T01:07:52;4.83;;;2.77;;
60030;SDS011;45901;47.600;9.890;2022-10-18T01:10:44;6.67;;;3.20;;
60030;SDS011;45901;47.600;9.890;2022-10-18T01:13:24;6.27;;;3.07;;
60030;SDS011;45901;47.600;9.890;2022-10-18T01:16:07;8.60;;;3.33;;
60030;SDS011;45901;47.600;9.890;2022-10-18T01:18:43;7.77;;;3.20;;
60030;SDS011;45901;47.600;9.890;2022-10-18T01:21:22;6.80;;;3.23;;
60030;SDS011;45901;47.600;9.890;2022-10-18T01:24:16;5.80;;;3.30;;
60030;SDS011;45901;47.600;9.890;2022-10-18T01:33:16;7.77;;;3.60;;
60030;SDS011;45901;47.600;9.890;2022-10-18T01:35:59;6.63;;;3.17;;
60030;SDS011;45901;47.600;9.890;2022-10-18T01:38:32;4.93;;;2.83;;
60030;SDS011;45901;47.600;9.890;2022-10-18T01:41:02;9.97;;;2.97;;
60030;SDS011;45901;47.600;9.890;2022-10-18T01:43:31;12.20;;;3.60;;
60030;SDS011;45901;47.600;9.890;2022-10-18T01:46:01;8.80;;;3.70;;
60030;SDS011;45901;47.600;9.890;2022-10-18T01:48:29;8.17;;;3.43;;
60030;SDS011;45901;47.600;9.890;2022-10-18T01:50:58;8.00;;;3.33;;
60030;SDS011;45901;47.600;9.890;2022-10-18T01:53:26;7.03;;;3.13;;
60030;SDS011;45901;47.600;9.890;2022-10-18T01:55:59;7.37;;;3.43;;
60030;SDS011;45901;47.600;9.890;2022-10-18T01:58:45;5.70;;;3.23;;
60030;SDS011;45901;47.600;9.890;2022-10-18T02:01:29;6.50;;;3.10;;
60030;SDS011;45901;47.600;9.890;2022-10-18T02:04:12;8.67;;;3.30;;
60030;SDS011;45901;47.600;9.890;2022-10-18T02:06:50;5.90;;;3.40;;
60030;SDS011;45901;47.600;9.890;2022-10-18T02:09:27;6.80;;;3.00;;
60030;SDS011;45901;47.600;9.890;2022-10-18T02:12:03;5.87;;;2.90;;
60030;SDS011;45901;47.600;9.890;2022-10-18T02:14:35;9.30;;;2.67;;
60030;SDS011;45901;47.600;9.890;2022-10-18T02:17:05;6.57;;;2.70;;
60030;SDS011;45901;47.600;9.890;2022-10-18T02:19:35;12.63;;;3.00;;
60030;SDS011;45901;47.600;9.890;2022-10-18T02:22:07;5.43;;;3.00;;
60030;SDS011;45901;47.600;9.890;2022-10-18T02:24:37;5.77;;;3.00;;
60030;SDS011;45901;47.600;9.890;2022-10-18T02:27:08;5.60;;;3.20;;
60030;SDS011;45901;47.600;9.890;2022-10-18T02:29:35;7.63;;;3.00;;
60030;SDS011;45901;47.600;9.890;2022-10-18T02:32:07;6.77;;;2.53;;
60030;SDS011;45901;47.600;9.890;2022-10-18T02:34:43;8.27;;;3.27;;
60030;SDS011;45901;47.600;9.890;2022-10-18T02:37:17;6.83;;;3.13;;
60030;SDS011;45901;47.600;9.890;2022-10-18T02:39:46;7.47;;;3.27;;
60030;SDS011;45901;47.600;9.890;2022-10-18T02:42:16;8.07;;;3.20;;
60030;SDS011;45901;47.600;9.890;2022-10-18T02:44:44;5.63;;;2.73;;
60030;SDS011;45901;47.600;9.890;2022-10-18T02:47:12;7.83;;;2.80;;
60030;SDS011;45901;47.600;9.890;2022-10-18T02:49:39;13.33;;;2.73;;
60030;SDS011;45901;47.600;9.890;2022-10-18T02:52:07;5.67;;;2.23;;
60030;SDS011;45901;47.600;9.890;2022-10-18T02:54:34;11.20;;;2.90;;
60030;SDS011;45901;47.600;9.890;2022-10-18T02:57:01;5.43;;;3.10;;
60030;SDS011;45901;47.600;9.890;2022-10-18T02:59:28;4.90;;;2.63;;
60030;SDS011;45901;47.600;9.890;2022-10-18T03:01:55;4.23;;;2.77;;
60030;SDS011;45901;47.600;9.890;2022-10-18T03:04:24;4.73;;;2.63;;
60030;SDS011;45901;47.600;9.890;2022-10-18T03:06:51;6.97;;;2.90;;
60030;SDS011;45901;47.600;9.890;2022-10-18T03:09:19;5.50;;;2.57;;
60030;SDS011;45901;47.600;9.890;2022-10-18T03:11:46;3.10;;;2.00;;
60030;SDS011;45901;47.600;9.890;2022-10-18T03:14:13;4.27;;;2.17;;
60030;SDS011;45901;47.600;9.890;2022-10-18T03:16:40;7.13;;;2.80;;
60030;SDS011;45901;47.600;9.890;2022-10-18T03:19:08;5.07;;;2.20;;
60030;SDS011;45901;47.600;9.890;2022-10-18T03:21:36;8.47;;;2.70;;
60030;SDS011;45901;47.600;9.890;2022-10-18T03:24:04;9.43;;;3.17;;
60030;SDS011;45901;47.600;9.890;2022-10-18T03:26:32;6.70;;;2.67;;
60030;SDS011;45901;47.600;9.890;2022-10-18T03:28:59;7.23;;;2.57;;
60030;SDS011;45901;47.600;9.890;2022-10-18T03:31:26;4.90;;;2.53;;
60030;SDS011;45901;47.600;9.890;2022-10-18T03:33:53;11.27;;;2.63;;
60030;SDS011;45901;47.600;9.890;2022-10-18T03:36:21;6.53;;;2.30;;
60030;SDS011;45901;47.600;9.890;2022-10-18T03:38:50;4.90;;;2.30;;
60030;SDS011;45901;47.600;9.890;2022-10-18T03:41:17;4.43;;;2.57;;
60030;SDS011;45901;47.600;9.890;2022-10-18T03:43:44;5.23;;;2.90;;
60030;SDS011;45901;47.600;9.890;2022-10-18T03:46:12;7.53;;;2.57;;
60030;SDS011;45901;47.600;9.890;2022-10-18T03:48:39;4.23;;;2.80;;
60030;SDS011;45901;47.600;9.890;2022-10-18T03:51:07;7.47;;;2.40;;
60030;SDS011;45901;47.600;9.890;2022-10-18T03:53:34;6.00;;;2.43;;
60030;SDS011;45901;47.600;9.890;2022-10-18T03:56:03;7.33;;;2.53;;
60030;SDS011;45901;47.600;9.890;2022-10-18T03:58:30;5.87;;;2.67;;
60030;SDS011;45901;47.600;9.890;2022-10-18T04:00:58;4.27;;;2.70;;
60030;SDS011;45901;47.600;9.890;2022-10-18T04:03:25;6.93;;;2.47;;
60030;SDS011;45901;47.600;9.890;2022-10-18T04:05:52;5.20;;;2.80;;
60030;SDS011;45901;47.600;9.890;2022-10-18T04:08:19;4.60;;;2.40;;
60030;SDS011;45901;47.600;9.890;2022-10-18T04:10:46;7.57;;;2.30;;
60030;SDS011;45901;47.600;9.890;2022-10-18T04:13:15;6.57;;;2.83;;
60030;SDS011;45901;47.600;9.890;2022-10-18T04:15:42;11.30;;;3.10;;
60030;SDS011;45901;47.600;9.890;2022-10-18T04:18:10;8.37;;;2.97;;
60030;SDS011;45901;47.600;9.890;2022-10-18T04:20:37;8.07;;;2.87;;
60030;SDS011;45901;47.600;9.890;2022-10-18T04:23:04;7.30;;;2.47;;
60030;SDS011;45901;47.600;9.890;2022-10-18T04:25:31;4.97;;;2.20;;
60030;SDS011;45901;47.600;9.890;2022-10-18T04:27:59;6.17;;;2.50;;
60030;SDS011;45901;47.600;9.890;2022-10-18T04:30:27;4.30;;;2.20;;
60030;SDS011;45901;47.600;9.890;2022-10-18T04:32:54;8.00;;;2.80;;
60030;SDS011;45901;47.600;9.890;2022-10-18T04:35:22;9.27;;;2.50;;
60030;SDS011;45901;47.600;9.890;2022-10-18T04:37:50;7.67;;;3.10;;
60030;SDS011;45901;47.600;9.890;2022-10-18T04:40:17;5.40;;;2.37;;
60030;SDS011;45901;47.600;9.890;2022-10-18T04:42:45;6.53;;;2.10;;
60030;SDS011;45901;47.600;9.890;2022-10-18T04:45:12;5.87;;;2.20;;
60030;SDS011;45901;47.600;9.890;2022-10-18T04:47:41;9.07;;;2.53;;
60030;SDS011;45901;47.600;9.890;2022-10-18T04:50:08;5.60;;;2.30;;
60030;SDS011;45901;47.600;9.890;2022-10-18T04:52:35;10.17;;;2.10;;
60030;SDS011;45901;47.600;9.890;2022-10-18T04:55:03;5.87;;;2.10;;
60030;SDS011;45901;47.600;9.890;2022-10-18T04:57:31;6.40;;;1.80;;
60030;SDS011;45901;47.600;9.890;2022-10-18T04:59:59;7.03;;;3.13;;
60030;SDS011;45901;47.600;9.890;2022-10-18T05:02:26;3.37;;;1.90;;
60030;SDS011;45901;47.600;9.890;2022-10-18T05:04:54;8.10;;;2.33;;
60030;SDS011;45901;47.600;9.890;2022-10-18T05:07:22;7.10;;;2.67;;
60030;SDS011;45901;47.600;9.890;2022-10-18T05:09:49;7.63;;;2.40;;
60030;SDS011;45901;47.600;9.890;2022-10-18T05:12:16;10.83;;;3.17;;
60030;SDS011;45901;47.600;9.890;2022-10-18T05:14:44;4.77;;;2.27;;
60030;SDS011;45901;47.600;9.890;2022-10-18T05:17:11;6.07;;;2.27;;
60030;SDS011;45901;47.600;9.890;2022-10-18T05:19:38;5.47;;;2.50;;
60030;SDS011;45901;47.600;9.890;2022-10-18T05:22:07;6.77;;;2.50;;
60030;SDS011;45901;47.600;9.890;2022-10-18T05:24:34;5.87;;;2.60;;
60030;SDS011;45901;47.600;9.890;2022-10-18T05:27:01;5.47;;;2.70;;
60030;SDS011;45901;47.600;9.890;2022-10-18T05:29:28;10.57;;;3.33;;
60030;SDS011;45901;47.600;9.890;2022-10-18T05:31:56;7.60;;;3.10;;
60030;SDS011;45901;47.600;9.890;2022-10-18T05:34:23;6.97;;;3.60;;
60030;SDS011;45901;47.600;9.890;2022-10-18T05:36:51;9.27;;;2.67;;
60030;SDS011;45901;47.600;9.890;2022-10-18T05:39:20;5.23;;;3.00;;
60030;SDS011;45901;47.600;9.890;2022-10-18T05:41:47;5.70;;;2.60;;
60030;SDS011;45901;47.600;9.890;2022-10-18T05:44:14;9.17;;;2.50;;
60030;SDS011;45901;47.600;9.890;2022-10-18T05:46:42;8.33;;;2.87;;
60030;SDS011;45901;47.600;9.890;2022-10-18T05:49:09;10.33;;;2.87;;
60030;SDS011;45901;47.600;9.890;2022-10-18T05:51:38;5.73;;;2.80;;
60030;SDS011;45901;47.600;9.890;2022-10-18T05:54:05;5.27;;;3.00;;
60030;SDS011;45901;47.600;9.890;2022-10-18T05:56:34;8.53;;;3.10;;
60030;SDS011;45901;47.600;9.890;2022-10-18T05:59:01;9.67;;;4.47;;
60030;SDS011;45901;47.600;9.890;2022-10-18T06:01:31;8.17;;;4.17;;
60030;SDS011;45901;47.600;9.890;2022-10-18T06:03:59;8.20;;;3.87;;
60030;SDS011;45901;47.600;9.890;2022-10-18T06:06:26;11.40;;;3.33;;
60030;SDS011;45901;47.600;9.890;2022-10-18T06:08:53;5.73;;;3.53;;
60030;SDS011;45901;47.600;9.890;2022-10-18T06:11:20;10.37;;;4.00;;
60030;SDS011;45901;47.600;9.890;2022-10-18T06:13:50;7.90;;;3.43;;
60030;SDS011;45901;47.600;9.890;2022-10-18T06:16:18;7.07;;;3.43;;
60030;SDS011;45901;47.600;9.890;2022-10-18T06:18:47;5.50;;;3.53;;
60030;SDS011;45901;47.600;9.890;2022-10-18T06:21:15;6.30;;;3.30;;
60030;SDS011;45901;47.600;9.890;2022-10-18T06:23:43;8.10;;;3.37;;
60030;SDS011;45901;47.600;9.890;2022-10-18T06:26:14;6.60;;;3.00;;
60030;SDS011;45901;47.600;9.890;2022-10-18T06:28:41;4.30;;;2.17;;
60030;SDS011;45901;47.600;9.890;2022-10-18T06:31:10;5.80;;;2.20;;
60030;SDS011;45901;47.600;9.890;2022-10-18T06:33:38;8.53;;;2.00;;
60030;SDS011;45901;47.600;9.890;2022-10-18T06:36:06;4.33;;;1.90;;
60030;SDS011;45901;47.600;9.890;2022-10-18T06:38:37;3.07;;;2.07;;
60030;SDS011;45901;47.600;9.890;2022-10-18T06:41:04;5.73;;;2.03;;
60030;SDS011;45901;47.600;9.890;2022-10-18T06:43:33;3.70;;;1.87;;
60030;SDS011;45901;47.600;9.890;2022-10-18T06:46:00;7.00;;;2.00;;
60030;SDS011;45901;47.600;9.890;2022-10-18T06:48:32;4.27;;;2.30;;
60030;SDS011;45901;47.600;9.890;2022-10-18T06:51:01;2.73;;;1.80;;
60030;SDS011;45901;47.600;9.890;2022-10-18T06:53:31;13.37;;;2.63;;
60030;SDS011;45901;47.600;9.890;2022-10-18T06:56:01;8.03;;;2.00;;
60030;SDS011;45901;47.600;9.890;2022-10-18T06:58:31;2.93;;;2.00;;
60030;SDS011;45901;47.600;9.890;2022-10-18T07:01:03;4.47;;;2.43;;
60030;SDS011;45901;47.600;9.890;2022-10-18T07:03:33;3.80;;;1.73;;
60030;SDS011;45901;47.600;9.890;2022-10-18T07:06:01;6.23;;;2.10;;
60030;SDS011;45901;47.600;9.890;2022-10-18T07:08:30;4.13;;;1.43;;
60030;SDS011;45901;47.600;9.890;2022-10-18T07:10:58;5.63;;;1.90;;
60030;SDS011;45901;47.600;9.890;2022-10-18T07:13:26;4.93;;;1.60;;
60030;SDS011;45901;47.600;9.890;2022-10-18T07:15:58;5.20;;;1.60;;
60030;SDS011;45901;47.600;9.890;2022-10-18T07:18:31;4.47;;;2.27;;
60030;SDS011;45901;47.600;9.890;2022-10-18T07:21:01;2.57;;;1.40;;
60030;SDS011;45901;47.600;9.890;2022-10-18T07:23:31;8.60;;;1.77;;
60030;SDS011;45901;47.600;9.890;2022-10-18T07:25:59;5.03;;;1.63;;
60030;SDS011;45901;47.600;9.890;2022-10-18T07:28:26;3.37;;;1.60;;
60030;SDS011;45901;47.600;9.890;2022-10-18T07:30:54;4.83;;;1.90;;
60030;SDS011;45901;47.600;9.890;2022-10-18T07:33:22;4.50;;;1.53;;
60030;SDS011;45901;47.600;9.890;2022-10-18T07:35:51;7.13;;;1.70;;
60030;SDS011;45901;47.600;9.890;2022-10-18T07:38:18;3.73;;;1.50;;
60030;SDS011;45901;47.600;9.890;2022-10-18T07:40:46;9.57;;;2.10;;
60030;SDS011;45901;47.600;9.890;2022-10-18T07:43:14;3.33;;;1.40;;
60030;SDS011;45901;47.600;9.890;2022-10-18T07:45:49;4.70;;;1.60;;
60030;SDS011;45901;47.600;9.890;2022-10-18T07:48:17;6.50;;;1.47;;
60030;SDS011;45901;47.600;9.890;2022-10-18T07:50:45;4.50;;;1.53;;
60030;SDS011;45901;47.600;9.890;2022-10-18T07:53:14;3.23;;;1.63;;
60030;SDS011;45901;47.600;9.890;2022-10-18T07:55:41;3.77;;;1.73;;
60030;SDS011;45901;47.600;9.890;2022-10-18T07:58:09;4.07;;;1.63;;
60030;SDS011;45901;47.600;9.890;2022-10-18T08:00:36;5.73;;;2.07;;
60030;SDS011;45901;47.600;9.890;2022-10-18T08:03:04;2.57;;;1.60;;
60030;SDS011;45901;47.600;9.890;2022-10-18T08:05:31;2.43;;;1.43;;
60030;SDS011;45901;47.600;9.890;2022-10-18T08:07:58;3.80;;;1.40;;
60030;SDS011;45901;47.600;9.890;2022-10-18T08:10:27;6.80;;;1.50;;
60030;SDS011;45901;47.600;9.890;2022-10-18T08:12:54;2.87;;;1.53;;
60030;SDS011;45901;47.600;9.890;2022-10-18T08:15:21;2.33;;;1.50;;
60030;SDS011;45901;47.600;9.890;2022-10-18T08:17:50;3.63;;;1.67;;
60030;SDS011;45901;47.600;9.890;2022-10-18T08:20:17;2.90;;;1.63;;
60030;SDS011;45901;47.600;9.890;2022-10-18T08:22:44;4.00;;;1.50;;
60030;SDS011;45901;47.600;9.890;2022-10-18T08:25:14;6.90;;;1.67;;
60030;SDS011;45901;47.600;9.890;2022-10-18T08:27:43;6.47;;;1.50;;
60030;SDS011;45901;47.600;9.890;2022-10-18T08:30:10;3.83;;;1.63;;
60030;SDS011;45901;47.600;9.890;2022-10-18T08:32:38;6.20;;;1.70;;
60030;SDS011;45901;47.600;9.890;2022-10-18T08:35:06;5.13;;;1.67;;
60030;SDS011;45901;47.600;9.890;2022-10-18T08:37:34;3.27;;;1.77;;
60030;SDS011;45901;47.600;9.890;2022-10-18T08:40:01;3.63;;;1.60;;
60030;SDS011;45901;47.600;9.890;2022-10-18T08:42:34;10.53;;;2.00;;
60030;SDS011;45901;47.600;9.890;2022-10-18T08:45:28;3.90;;;1.63;;
60030;SDS011;45901;47.600;9.890;2022-10-18T08:48:00;4.23;;;1.80;;
60030;SDS011;45901;47.600;9.890;2022-10-18T08:50:29;2.30;;;1.50;;
60030;SDS011;45901;47.600;9.890;2022-10-18T08:53:03;3.13;;;1.67;;
60030;SDS011;45901;47.600;9.890;2022-10-18T08:55:41;3.77;;;1.70;;
60030;SDS011;45901;47.600;9.890;2022-10-18T08:58:18;4.00;;;1.57;;
60030;SDS011;45901;47.600;9.890;2022-10-18T09:00:49;3.80;;;1.80;;
60030;SDS011;45901;47.600;9.890;2022-10-18T09:03:31;5.50;;;1.60;;
60030;SDS011;45901;47.600;9.890;2022-10-18T09:06:22;5.83;;;1.83;;
60030;SDS011;45901;47.600;9.890;2022-10-18T09:09:00;4.37;;;1.83;;
60030;SDS011;45901;47.600;9.890;2022-10-18T09:11:45;5.83;;;1.43;;
60030;SDS011;45901;47.600;9.890;2022-10-18T09:17:27;4.57;;;1.63;;
60030;SDS011;45901;47.600;9.890;2022-10-18T09:20:14;3.97;;;1.87;;
60030;SDS011;45901;47.600;9.890;2022-10-18T09:22:53;4.53;;;1.73;;
60030;SDS011;45901;47.600;9.890;2022-10-18T09:25:25;3.87;;;1.50;;
60030;SDS011;45901;47.600;9.890;2022-10-18T09:28:03;3.40;;;1.47;;
60030;SDS011;45901;47.600;9.890;2022-10-18T09:30:44;4.20;;;1.73;;
60030;SDS011;45901;47.600;9.890;2022-10-18T09:33:26;3.53;;;1.80;;
60030;SDS011;45901;47.600;9.890;2022-10-18T09:36:13;4.07;;;2.03;;
60030;SDS011;45901;47.600;9.890;2022-10-18T09:38:45;5.40;;;2.00;;
60030;SDS011;45901;47.600;9.890;2022-10-18T09:41:18;3.33;;;1.80;;
60030;SDS011;45901;47.600;9.890;2022-10-18T09:43:50;4.97;;;1.80;;
60030;SDS011;45901;47.600;9.890;2022-10-18T09:46:24;5.57;;;2.17;;
60030;SDS011;45901;47.600;9.890;2022-10-18T09:48:57;5.30;;;2.43;;
60030;SDS011;45901;47.600;9.890;2022-10-18T09:51:29;2.77;;;1.60;;
60030;SDS011;45901;47.600;9.890;2022-10-18T09:54:04;4.07;;;2.17;;
60030;SDS011;45901;47.600;9.890;2022-10-18T09:56:45;8.10;;;2.07;;
60030;SDS011;45901;47.600;9.890;2022-10-18T09:59:23;4.10;;;1.90;;
60030;SDS011;45901;47.600;9.890;2022-10-18T10:02:04;8.90;;;1.83;;
60030;SDS011;45901;47.600;9.890;2022-10-18T10:04:31;2.00;;;1.20;;
60030;SDS011;45901;47.600;9.890;2022-10-18T10:06:59;5.47;;;1.93;;
60030;SDS011;45901;47.600;9.890;2022-10-18T10:09:28;3.33;;;1.80;;
60030;SDS011;45901;47.600;9.890;2022-10-18T10:11:57;4.40;;;2.00;;
60030;SDS011;45901;47.600;9.890;2022-10-18T10:14:25;4.63;;;2.20;;
60030;SDS011;45901;47.600;9.890;2022-10-18T10:16:55;12.07;;;2.10;;
60030;SDS011;45901;47.600;9.890;2022-10-18T10:19:29;5.73;;;1.87;;
60030;SDS011;45901;47.600;9.890;2022-10-18T10:22:02;6.27;;;1.80;;
60030;SDS011;45901;47.600;9.890;2022-10-18T10:24:33;3.77;;;1.90;;
60030;SDS011;45901;47.600;9.890;2022-10-18T10:27:14;4.07;;;1.57;;
60030;SDS011;45901;47.600;9.890;2022-10-18T10:29:54;5.40;;;1.80;;
60030;SDS011;45901;47.600;9.890;2022-10-18T10:32:25;4.17;;;1.80;;
60030;SDS011;45901;47.600;9.890;2022-10-18T10:34:56;7.13;;;1.80;;
60030;SDS011;45901;47.600;9.890;2022-10-18T10:37:28;8.60;;;2.03;;
60030;SDS011;45901;47.600;9.890;2022-10-18T10:40:03;4.00;;;1.80;;
60030;SDS011;45901;47.600;9.890;2022-10-18T10:42:50;3.57;;;1.80;;
60030;SDS011;45901;47.600;9.890;2022-10-18T10:45:28;3.43;;;1.70;;
60030;SDS011;45901;47.600;9.890;2022-10-18T10:48:02;3.87;;;1.50;;
60030;SDS011;45901;47.600;9.890;2022-10-18T10:50:57;5.33;;;1.90;;
60030;SDS011;45901;47.600;9.890;2022-10-18T10:56:17;5.67;;;1.80;;
60030;SDS011;45901;47.600;9.890;2022-10-18T10:58:49;6.07;;;1.60;;
60030;SDS011;45901;47.600;9.890;2022-10-18T11:01:22;5.40;;;2.03;;
60030;SDS011;45901;47.600;9.890;2022-10-18T11:03:56;5.67;;;1.50;;
60030;SDS011;45901;47.600;9.890;2022-10-18T11:06:38;7.00;;;1.90;;
60030;SDS011;45901;47.600;9.890;2022-10-18T11:09:16;2.57;;;1.60;;
60030;SDS011;45901;47.600;9.890;2022-10-18T11:12:01;2.47;;;1.70;;
60030;SDS011;45901;47.600;9.890;2022-10-18T11:14:49;5.67;;;2.07;;
60030;SDS011;45901;47.600;9.890;2022-10-18T11:17:26;7.97;;;2.00;;
60030;SDS011;45901;47.600;9.890;2022-10-18T11:20:04;3.40;;;1.97;;
60030;SDS011;45901;47.600;9.890;2022-10-18T11:22:55;9.60;;;1.93;;
60030;SDS011;45901;47.600;9.890;2022-10-18T11:25:28;4.57;;;1.90;;
60030;SDS011;45901;47.600;9.890;2022-10-18T11:28:14;6.63;;;2.40;;
60030;SDS011;45901;47.600;9.890;2022-10-18T11:30:53;6.07;;;2.27;;
60030;SDS011;45901;47.600;9.890;2022-10-18T11:33:36;5.03;;;2.40;;
60030;SDS011;45901;47.600;9.890;2022-10-18T11:36:26;7.67;;;2.47;;
60030;SDS011;45901;47.600;9.890;2022-10-18T11:39:04;7.90;;;2.10;;
60030;SDS011;45901;47.600;9.890;2022-10-18T11:41:43;5.40;;;2.40;;
60030;SDS011;45901;47.600;9.890;2022-10-18T11:44:21;4.27;;;2.20;;
60030;SDS011;45901;47.600;9.890;2022-10-18T11:46:59;4.70;;;2.47;;
60030;SDS011;45901;47.600;9.890;2022-10-18T11:49:41;4.63;;;2.10;;
60030;SDS011;45901;47.600;9.890;2022-10-18T11:52:24;3.87;;;2.43;;
60030;SDS011;45901;47.600;9.890;2022-10-18T11:55:04;7.70;;;2.40;;
60030;SDS011;45901;47.600;9.890;2022-10-18T11:58:00;4.97;;;2.23;;
60030;SDS011;45901;47.600;9.890;2022-10-18T12:00:42;4.90;;;2.60;;
60030;SDS011;45901;47.600;9.890;2022-10-18T12:03:19;4.93;;;1.87;;
60030;SDS011;45901;47.600;9.890;2022-10-18T12:06:19;4.67;;;2.17;;
60030;SDS011;45901;47.600;9.890;2022-10-18T12:08:51;5.07;;;2.23;;
60030;SDS011;45901;47.600;9.890;2022-10-18T12:11:26;6.80;;;2.23;;
60030;SDS011;45901;47.600;9.890;2022-10-18T12:13:58;5.83;;;2.17;;
60030;SDS011;45901;47.600;9.890;2022-10-18T12:16:28;5.43;;;2.20;;
60030;SDS011;45901;47.600;9.890;2022-10-18T12:19:03;7.80;;;2.23;;
60030;SDS011;45901;47.600;9.890;2022-10-18T12:21:37;7.27;;;2.43;;
60030;SDS011;45901;47.600;9.890;2022-10-18T12:24:06;6.70;;;2.47;;
60030;SDS011;45901;47.600;9.890;2022-10-18T12:26:39;6.87;;;2.33;;
60030;SDS011;45901;47.600;9.890;2022-10-18T12:29:13;5.30;;;2.57;;
60030;SDS011;45901;47.600;9.890;2022-10-18T12:31:51;5.57;;;2.20;;
60030;SDS011;45901;47.600;9.890;2022-10-18T12:34:27;4.73;;;2.30;;
60030;SDS011;45901;47.600;9.890;2022-10-18T12:37:16;4.07;;;2.10;;
60030;SDS011;45901;47.600;9.890;2022-10-18T12:40:01;6.57;;;2.63;;
60030;SDS011;45901;47.600;9.890;2022-10-18T12:42:40;11.10;;;2.80;;
60030;SDS011;45901;47.600;9.890;2022-10-18T12:45:18;9.03;;;2.70;;
60030;SDS011;45901;47.600;9.890;2022-10-18T12:47:59;6.07;;;2.50;;
60030;SDS011;45901;47.600;9.890;2022-10-18T12:50:32;10.57;;;2.50;;
60030;SDS011;45901;47.600;9.890;2022-10-18T12:55:49;6.50;;;2.37;;
60030;SDS011;45901;47.600;9.890;2022-10-18T12:58:26;9.33;;;3.20;;
60030;SDS011;45901;47.600;9.890;2022-10-18T13:01:00;6.97;;;2.53;;
60030;SDS011;45901;47.600;9.890;2022-10-18T13:03:40;6.27;;;2.60;;
60030;SDS011;45901;47.600;9.890;2022-10-18T13:06:19;6.67;;;2.13;;
60030;SDS011;45901;47.600;9.890;2022-10-18T13:08:53;8.67;;;2.73;;
60030;SDS011;45901;47.600;9.890;2022-10-18T13:11:42;5.37;;;2.70;;
60030;SDS011;45901;47.600;9.890;2022-10-18T13:17:15;9.70;;;2.47;;
60030;SDS011;45901;47.600;9.890;2022-10-18T13:19:55;6.63;;;2.20;;
60030;SDS011;45901;47.600;9.890;2022-10-18T13:22:45;9.07;;;2.50;;
60030;SDS011;45901;47.600;9.890;2022-10-18T13:25:31;10.47;;;2.90;;
60030;SDS011;45901;47.600;9.890;2022-10-18T13:28:14;7.67;;;2.60;;
60030;SDS011;45901;47.600;9.890;2022-10-18T13:30:53;6.83;;;2.40;;
60030;SDS011;45901;47.600;9.890;2022-10-18T13:33:30;4.73;;;2.60;;
60030;SDS011;45901;47.600;9.890;2022-10-18T13:36:01;8.10;;;2.70;;
60030;SDS011;45901;47.600;9.890;2022-10-18T13:38:40;6.10;;;2.80;;
60030;SDS011;45901;47.600;9.890;2022-10-18T13:41:14;7.83;;;2.60;;
60030;SDS011;45901;47.600;9.890;2022-10-18T13:44:08;6.00;;;2.40;;
60030;SDS011;45901;47.600;9.890;2022-10-18T13:47:08;8.63;;;2.77;;
60030;SDS011;45901;47.600;9.890;2022-10-18T13:49:43;6.47;;;2.33;;
60030;SDS011;45901;47.600;9.890;2022-10-18T13:56:03;4.87;;;2.30;;
60030;SDS011;45901;47.600;9.890;2022-10-18T13:59:07;5.77;;;2.30;;
60030;SDS011;45901;47.600;9.890;2022-10-18T14:02:07;7.07;;;2.07;;
60030;SDS011;45901;47.600;9.890;2022-10-18T14:08:01;8.40;;;2.20;;
60030;SDS011;45901;47.600;9.890;2022-10-18T14:10:37;7.07;;;2.10;;
60030;SDS011;45901;47.600;9.890;2022-10-18T14:13:15;7.13;;;2.43;;
60030;SDS011;45901;47.600;9.890;2022-10-18T14:15:48;8.90;;;2.93;;
60030;SDS011;45901;47.600;9.890;2022-10-18T14:18:21;7.90;;;2.53;;
60030;SDS011;45901;47.600;9.890;2022-10-18T14:20:57;9.40;;;1.90;;
60030;SDS011;45901;47.600;9.890;2022-10-18T14:23:30;8.63;;;2.20;;
60030;SDS011;45901;47.600;9.890;2022-10-18T14:26:04;8.87;;;1.53;;
60030;SDS011;45901;47.600;9.890;2022-10-18T14:28:33;7.17;;;1.87;;
60030;SDS011;45901;47.600;9.890;2022-10-18T14:31:02;4.23;;;1.93;;
60030;SDS011;45901;47.600;9.890;2022-10-18T14:33:34;13.50;;;2.80;;
60030;SDS011;45901;47.600;9.890;2022-10-18T14:36:05;5.23;;;2.10;;
60030;SDS011;45901;47.600;9.890;2022-10-18T14:38:43;6.03;;;2.27;;
60030;SDS011;45901;47.600;9.890;2022-10-18T14:41:14;7.07;;;2.00;;
60030;SDS011;45901;47.600;9.890;2022-10-18T14:43:46;7.63;;;2.03;;
60030;SDS011;45901;47.600;9.890;2022-10-18T14:46:15;8.13;;;2.03;;
60030;SDS011;45901;47.600;9.890;2022-10-18T14:48:56;10.23;;;2.20;;
60030;SDS011;45901;47.600;9.890;2022-10-18T14:51:25;8.50;;;2.40;;
60030;SDS011;45901;47.600;9.890;2022-10-18T14:53:59;9.77;;;2.27;;
60030;SDS011;45901;47.600;9.890;2022-10-18T14:56:29;5.00;;;2.00;;
60030;SDS011;45901;47.600;9.890;2022-10-18T14:59:04;5.57;;;2.20;;
60030;SDS011;45901;47.600;9.890;2022-10-18T15:01:45;6.80;;;2.47;;
60030;SDS011;45901;47.600;9.890;2022-10-18T15:04:23;9.27;;;2.53;;
60030;SDS011;45901;47.600;9.890;2022-10-18T15:06:57;10.67;;;2.00;;
60030;SDS011;45901;47.600;9.890;2022-10-18T15:09:27;5.53;;;2.30;;
60030;SDS011;45901;47.600;9.890;2022-10-18T15:11:56;5.77;;;2.20;;
60030;SDS011;45901;47.600;9.890;2022-10-18T15:14:26;4.97;;;2.10;;
60030;SDS011;45901;47.600;9.890;2022-10-18T15:16:55;9.73;;;2.70;;
60030;SDS011;45901;47.600;9.890;2022-10-18T15:19:30;8.10;;;3.03;;
60030;SDS011;45901;47.600;9.890;2022-10-18T15:22:00;6.93;;;2.10;;
60030;SDS011;45901;47.600;9.890;2022-10-18T15:24:33;6.67;;;2.63;;
60030;SDS011;45901;47.600;9.890;2022-10-18T15:27:09;7.63;;;2.70;;
60030;SDS011;45901;47.600;9.890;2022-10-18T15:29:40;5.13;;;2.30;;
60030;SDS011;45901;47.600;9.890;2022-10-18T15:32:13;7.43;;;2.80;;
60030;SDS011;45901;47.600;9.890;2022-10-18T15:34:48;8.47;;;2.60;;
60030;SDS011;45901;47.600;9.890;2022-10-18T15:37:16;8.07;;;2.60;;
60030;SDS011;45901;47.600;9.890;2022-10-18T15:42:54;20.70;;;3.27;;
60030;SDS011;45901;47.600;9.890;2022-10-18T15:45:28;15.17;;;2.60;;